createdAt,value
2022-10-05T00:00:14.818Z,10.40
2022-10-05T00:02:43.204Z,10.30
2022-10-05T00:05:21.817Z,10.30
2022-10-05T00:07:53.015Z,10.30
2022-10-05T00:10:21.621Z,10.30
2022-10-05T00:12:50.375Z,10.30
2022-10-05T00:15:21.668Z,10.20
2022-10-05T00:17:50.134Z,10.20
2022-10-05T00:20:22.377Z,10.20
2022-10-05T00:22:56.838Z,10.30
2022-10-05T00:25:25.401Z,10.30
2022-10-05T00:27:57.025Z,10.30
2022-10-05T00:30:27.518Z,10.30
2022-10-05T00:32:59.487Z,10.30
2022-10-05T00:35:29.450Z,10.20
2022-10-05T00:37:59.381Z,10.20
2022-10-05T00:40:55.158Z,10.20
2022-10-05T00:43:39.012Z,10.20
2022-10-05T00:46:13.432Z,10.20
2022-10-05T00:48:50.663Z,10.20
2022-10-05T00:51:26.175Z,10.20
2022-10-05T00:54:18.135Z,10.30
2022-10-05T00:57:11.995Z,10.30
2022-10-05T00:59:53.492Z,10.30
2022-10-05T01:02:36.559Z,10.30
2022-10-05T01:05:11.121Z,10.30
2022-10-05T01:07:48.292Z,10.30
2022-10-05T01:10:24.284Z,10.30
2022-10-05T01:13:03.524Z,10.30
2022-10-05T01:15:37.727Z,10.20
2022-10-05T01:18:12.470Z,10.20
2022-10-05T01:20:49.957Z,10.20
2022-10-05T01:23:46.361Z,10.20
2022-10-05T01:26:37.644Z,10.10
2022-10-05T01:29:15.291Z,10.10
2022-10-05T01:31:49.792Z,10.00
2022-10-05T01:34:28.078Z,10.00
2022-10-05T01:37:05.198Z,9.90
2022-10-05T01:39:43.389Z,9.90
2022-10-05T01:42:22.098Z,9.80
2022-10-05T01:45:03.572Z,9.70
2022-10-05T01:47:38.584Z,9.70
2022-10-05T01:50:12.751Z,9.60
2022-10-05T01:52:49.380Z,9.60
2022-10-05T01:55:25.870Z,9.60
2022-10-05T01:58:08.851Z,9.60
2022-10-05T02:00:46.336Z,9.60
2022-10-05T02:03:20.540Z,9.60
2022-10-05T02:05:53.924Z,9.60
2022-10-05T02:08:27.560Z,9.60
2022-10-05T02:11:02.289Z,9.70
2022-10-05T02:13:36.105Z,9.70
2022-10-05T02:16:11.086Z,9.70
2022-10-05T02:18:42.924Z,9.70
2022-10-05T02:21:11.848Z,9.60
2022-10-05T02:23:43.978Z,9.60
2022-10-05T02:26:13.772Z,9.50
2022-10-05T02:28:47.716Z,9.50
2022-10-05T02:31:22.344Z,9.40
2022-10-05T02:33:51.035Z,9.40
2022-10-05T02:36:30.118Z,9.30
2022-10-05T02:39:05.852Z,9.30
2022-10-05T02:41:50.466Z,9.20
2022-10-05T02:44:28.253Z,9.20
2022-10-05T02:47:03.676Z,9.10
2022-10-05T02:49:42.575Z,9.10
2022-10-05T02:52:15.277Z,9.10
2022-10-05T02:54:51.189Z,9.00
2022-10-05T02:57:27.223Z,9.00
2022-10-05T03:00:04.813Z,9.00
2022-10-05T03:02:42.814Z,8.90
2022-10-05T03:05:21.205Z,8.90
2022-10-05T03:07:56.787Z,8.90
2022-10-05T03:10:30.674Z,8.90
2022-10-05T03:13:06.307Z,8.90
2022-10-05T03:15:53.901Z,8.90
2022-10-05T03:18:37.194Z,8.90
2022-10-05T03:21:19.800Z,8.80
2022-10-05T03:24:01.558Z,8.80
2022-10-05T03:26:41.801Z,8.80
2022-10-05T03:29:21.852Z,8.80
2022-10-05T03:31:58.861Z,8.70
2022-10-05T03:34:36.864Z,8.70
2022-10-05T03:37:14.889Z,8.70
2022-10-05T03:39:50.071Z,8.60
2022-10-05T03:42:26.812Z,8.60
2022-10-05T03:45:04.796Z,8.60
2022-10-05T03:47:41.270Z,8.50
2022-10-05T03:50:40.773Z,8.50
2022-10-05T03:53:16.184Z,8.50
2022-10-05T03:55:50.017Z,8.50
2022-10-05T03:58:25.201Z,8.50
2022-10-05T04:00:59.260Z,8.50
2022-10-05T04:03:33.696Z,8.40
2022-10-05T04:06:10.244Z,8.40
2022-10-05T04:08:47.768Z,8.40
2022-10-05T04:11:24.027Z,8.40
2022-10-05T04:14:00.183Z,8.40
2022-10-05T04:16:32.467Z,8.30
2022-10-05T04:19:10.581Z,8.30
2022-10-05T04:21:47.985Z,8.30
2022-10-05T04:24:22.229Z,8.30
2022-10-05T04:26:55.901Z,8.40
2022-10-05T04:29:32.589Z,8.40
2022-10-05T04:32:24.323Z,8.40
2022-10-05T04:35:04.744Z,8.50
2022-10-05T04:37:46.466Z,8.60
2022-10-05T04:40:29.690Z,8.70
2022-10-05T04:43:06.638Z,8.80
2022-10-05T04:45:49.922Z,8.80
2022-10-05T04:48:47.981Z,8.80
2022-10-05T04:51:25.757Z,8.80
2022-10-05T04:54:00.184Z,8.80
2022-10-05T04:56:35.429Z,8.70
2022-10-05T04:59:26.289Z,8.70
2022-10-05T05:02:07.180Z,8.60
2022-10-05T05:05:07.193Z,8.50
2022-10-05T05:07:45.788Z,8.40
2022-10-05T05:10:40.115Z,8.40
2022-10-05T05:13:29.817Z,8.30
2022-10-05T05:16:03.592Z,8.30
2022-10-05T05:18:47.707Z,8.20
2022-10-05T05:21:30.167Z,8.20
2022-10-05T05:24:06.476Z,8.10
2022-10-05T05:26:54.535Z,8.10
2022-10-05T05:29:31.089Z,8.10
2022-10-05T05:32:08.567Z,8.10
2022-10-05T05:34:49.027Z,8.00
2022-10-05T05:37:24.754Z,8.00
2022-10-05T05:40:04.643Z,8.00
2022-10-05T05:42:44.911Z,8.00
2022-10-05T05:45:19.534Z,8.00
2022-10-05T05:47:53.870Z,8.10
2022-10-05T05:50:49.244Z,8.20
2022-10-05T05:53:22.766Z,8.30
2022-10-05T05:55:55.853Z,8.40
2022-10-05T05:58:30.896Z,8.50
2022-10-05T06:01:04.129Z,8.60
2022-10-05T06:03:38.745Z,8.70
2022-10-05T06:06:12.074Z,8.80
2022-10-05T06:08:44.699Z,8.90
2022-10-05T06:11:38.627Z,9.00
2022-10-05T06:14:16.613Z,9.10
2022-10-05T06:16:51.175Z,9.20
2022-10-05T06:19:23.576Z,9.30
2022-10-05T06:21:59.675Z,9.30
2022-10-05T06:24:35.780Z,9.40
2022-10-05T06:27:24.523Z,9.50
2022-10-05T06:30:14.228Z,9.60
2022-10-05T06:33:02.601Z,9.70
2022-10-05T06:35:44.093Z,9.80
2022-10-05T06:38:25.632Z,9.90
2022-10-05T06:41:04.658Z,10.00
2022-10-05T06:43:47.533Z,10.10
2022-10-05T06:46:59.442Z,10.20
2022-10-05T06:50:01.547Z,10.30
2022-10-05T06:53:09.985Z,10.40
2022-10-05T06:55:46.651Z,10.60
2022-10-05T06:58:32.555Z,10.70
2022-10-05T07:01:10.724Z,10.80
2022-10-05T07:03:51.011Z,10.90
2022-10-05T07:06:26.727Z,11.00
2022-10-05T07:09:08.773Z,11.10
2022-10-05T07:12:02.292Z,11.30
2022-10-05T07:14:52.905Z,11.40
2022-10-05T07:17:36.070Z,11.50
2022-10-05T07:20:17.030Z,11.60
2022-10-05T07:23:12.914Z,11.70
2022-10-05T07:25:47.608Z,11.80
2022-10-05T07:28:22.980Z,11.90
2022-10-05T07:30:57.606Z,12.00
2022-10-05T07:33:31.429Z,12.10
2022-10-05T07:36:24.159Z,12.10
2022-10-05T07:39:00.265Z,12.30
2022-10-05T07:41:36.621Z,12.30
2022-10-05T07:44:13.426Z,12.50
2022-10-05T07:46:52.791Z,12.60
2022-10-05T07:49:37.479Z,12.70
2022-10-05T07:52:14.878Z,12.80
2022-10-05T07:54:54.033Z,12.90
2022-10-05T07:57:32.197Z,13.10
2022-10-05T08:00:05.021Z,13.20
2022-10-05T08:02:46.592Z,13.30
2022-10-05T08:05:22.477Z,13.50
2022-10-05T08:07:58.526Z,13.60
2022-10-05T08:10:34.169Z,13.70
2022-10-05T08:13:11.903Z,13.90
2022-10-05T08:15:44.263Z,14.00
2022-10-05T08:18:18.463Z,14.20
2022-10-05T08:20:50.322Z,14.30
2022-10-05T08:23:26.631Z,14.40
2022-10-05T08:26:15.891Z,14.60
2022-10-05T08:28:51.714Z,14.70
2022-10-05T08:31:24.003Z,14.90
2022-10-05T08:33:58.665Z,15.00
2022-10-05T08:36:44.883Z,15.10
2022-10-05T08:39:19.722Z,15.30
2022-10-05T08:42:27.395Z,15.40
2022-10-05T08:45:31.942Z,15.50
2022-10-05T08:48:31.248Z,15.70
2022-10-05T08:51:32.334Z,15.80
2022-10-05T08:54:24.793Z,16.00
2022-10-05T08:57:07.234Z,16.10
2022-10-05T09:00:06.300Z,16.20
2022-10-05T09:02:59.933Z,16.30
2022-10-05T09:05:56.408Z,16.50
2022-10-05T09:09:09.100Z,16.60
2022-10-05T09:11:41.171Z,16.80
2022-10-05T09:14:27.837Z,17.00
2022-10-05T09:17:22.865Z,17.10
2022-10-05T09:20:00.926Z,17.20
2022-10-05T09:23:06.267Z,17.40
2022-10-05T09:25:44.777Z,17.50
2022-10-05T09:28:25.532Z,17.60
2022-10-05T09:31:11.812Z,17.80
2022-10-05T09:34:06.537Z,17.90
2022-10-05T09:37:23.429Z,18.10
2022-10-05T09:40:28.130Z,18.30
2022-10-05T09:43:12.078Z,18.40
2022-10-05T09:46:24.405Z,18.60
2022-10-05T09:49:25.630Z,18.80
2022-10-05T09:52:38.466Z,19.00
2022-10-05T09:55:41.661Z,19.20
2022-10-05T09:58:43.527Z,19.30
2022-10-05T10:01:35.335Z,19.50
2022-10-05T10:04:26.000Z,19.70
2022-10-05T10:07:33.174Z,19.80
2022-10-05T10:10:29.359Z,19.90
2022-10-05T10:13:21.005Z,20.00
2022-10-05T10:16:18.912Z,20.10
2022-10-05T10:19:13.864Z,20.30
2022-10-05T10:22:13.512Z,20.30
2022-10-05T10:24:55.957Z,20.40
2022-10-05T10:27:43.382Z,20.60
2022-10-05T10:30:47.951Z,21.00
2022-10-05T10:33:47.942Z,21.70
2022-10-05T10:36:27.209Z,22.30
2022-10-05T10:39:02.775Z,22.80
2022-10-05T10:42:00.338Z,23.40
2022-10-05T10:45:09.186Z,23.70
2022-10-05T10:48:01.817Z,24.30
2022-10-05T10:51:09.479Z,24.60
2022-10-05T10:54:27.230Z,25.10
2022-10-05T10:57:04.467Z,25.60
2022-10-05T11:00:21.736Z,26.00
2022-10-05T11:03:35.095Z,26.10
2022-10-05T11:06:42.506Z,26.40
2022-10-05T11:09:40.612Z,26.80
2022-10-05T11:13:02.206Z,27.20
2022-10-05T11:19:08.305Z,27.90
2022-10-05T11:21:43.449Z,28.10
2022-10-05T11:24:47.722Z,28.10
2022-10-05T11:27:50.124Z,28.20
2022-10-05T11:30:45.200Z,28.40
2022-10-05T11:33:59.163Z,28.30
2022-10-05T11:36:47.758Z,28.50
2022-10-05T11:39:37.029Z,28.80
2022-10-05T11:42:40.042Z,29.10
2022-10-05T11:45:26.062Z,29.40
2022-10-05T11:48:25.617Z,29.80
2022-10-05T11:51:15.361Z,30.10
2022-10-05T11:53:51.947Z,30.30
2022-10-05T11:56:25.031Z,30.50
2022-10-05T11:59:01.366Z,30.70
2022-10-05T12:01:35.901Z,31.00
2022-10-05T12:04:15.447Z,31.20
2022-10-05T12:06:58.874Z,31.40
2022-10-05T12:10:02.764Z,31.80
2022-10-05T12:12:37.870Z,32.10
2022-10-05T12:15:20.044Z,32.40
2022-10-05T12:17:55.530Z,32.60
2022-10-05T12:20:30.682Z,32.70
2022-10-05T12:23:04.586Z,33.00
2022-10-05T12:25:37.561Z,33.20
2022-10-05T12:28:12.265Z,33.40
2022-10-05T12:31:09.864Z,33.40
2022-10-05T12:33:43.755Z,33.50
2022-10-05T12:36:16.404Z,33.80
2022-10-05T12:38:51.342Z,34.00
2022-10-05T12:41:26.521Z,34.00
2022-10-05T12:44:10.060Z,34.00
2022-10-05T12:46:47.930Z,33.90
2022-10-05T12:49:59.979Z,33.90
2022-10-05T12:52:51.854Z,34.10
2022-10-05T12:55:26.777Z,34.30
2022-10-05T12:58:05.440Z,34.40
2022-10-05T13:00:37.666Z,34.50
2022-10-05T13:03:17.210Z,34.70
2022-10-05T13:06:01.765Z,34.90
2022-10-05T13:08:38.540Z,35.00
2022-10-05T13:11:15.126Z,34.90
2022-10-05T13:13:52.327Z,35.00
2022-10-05T13:16:29.886Z,35.10
2022-10-05T13:19:15.227Z,35.10
2022-10-05T13:22:05.855Z,35.20
2022-10-05T13:24:43.480Z,35.50
2022-10-05T13:27:17.027Z,35.50
2022-10-05T13:29:54.174Z,35.80
2022-10-05T13:32:26.364Z,36.30
2022-10-05T13:35:11.502Z,36.70
2022-10-05T13:37:51.248Z,36.90
2022-10-05T13:40:29.782Z,36.80
2022-10-05T13:43:05.324Z,36.70
2022-10-05T13:45:42.336Z,36.50
2022-10-05T13:48:24.782Z,36.40
2022-10-05T13:51:03.957Z,36.30
2022-10-05T13:53:41.504Z,36.30
2022-10-05T13:56:19.026Z,36.40
2022-10-05T13:58:51.846Z,36.40
2022-10-05T14:01:28.324Z,36.70
2022-10-05T14:04:18.135Z,36.70
2022-10-05T14:06:48.830Z,36.60
2022-10-05T14:09:29.760Z,36.60
2022-10-05T14:12:15.306Z,36.60
2022-10-05T14:14:49.911Z,36.50
2022-10-05T14:17:32.821Z,36.50
2022-10-05T14:20:03.062Z,36.70
2022-10-05T14:22:42.835Z,36.80
2022-10-05T14:25:17.212Z,36.90
2022-10-05T14:28:02.134Z,36.80
2022-10-05T14:30:32.020Z,36.80
2022-10-05T14:33:15.597Z,36.90
2022-10-05T14:35:50.786Z,36.90
2022-10-05T14:38:22.873Z,37.00
2022-10-05T14:41:17.530Z,37.10
2022-10-05T14:44:03.412Z,37.30
2022-10-05T14:46:33.883Z,37.40
2022-10-05T14:49:18.293Z,37.50
2022-10-05T14:51:47.030Z,37.40
2022-10-05T14:54:30.597Z,37.20
2022-10-05T14:57:18.373Z,37.30
2022-10-05T15:00:04.185Z,37.10
2022-10-05T15:03:05.289Z,36.90
2022-10-05T15:05:40.023Z,36.90
2022-10-05T15:08:22.002Z,37.00
2022-10-05T15:10:57.939Z,37.00
2022-10-05T15:13:31.732Z,37.10
2022-10-05T15:16:06.677Z,37.10
2022-10-05T15:18:42.238Z,36.90
2022-10-05T15:21:24.831Z,36.90
2022-10-05T15:23:57.616Z,36.90
2022-10-05T15:26:43.169Z,37.00
2022-10-05T15:29:26.037Z,36.90
2022-10-05T15:32:00.741Z,36.70
2022-10-05T15:34:35.121Z,36.40
2022-10-05T15:37:12.095Z,36.40
2022-10-05T15:39:50.610Z,36.40
2022-10-05T15:42:26.271Z,36.40
2022-10-05T15:45:05.396Z,36.30
2022-10-05T15:47:48.125Z,36.10
2022-10-05T15:50:22.633Z,35.90
2022-10-05T15:52:55.814Z,35.70
2022-10-05T15:55:36.302Z,35.50
2022-10-05T15:58:32.089Z,35.10
2022-10-05T16:01:08.008Z,34.70
2022-10-05T16:03:49.216Z,34.20
2022-10-05T16:06:57.793Z,33.80
2022-10-05T16:09:52.114Z,33.40
2022-10-05T16:12:33.508Z,33.00
2022-10-05T16:15:16.936Z,32.60
2022-10-05T16:17:59.538Z,32.30
2022-10-05T16:20:43.495Z,31.80
2022-10-05T16:23:25.155Z,31.40
2022-10-05T16:26:11.638Z,30.90
2022-10-05T16:28:49.875Z,30.20
2022-10-05T16:31:26.839Z,29.30
2022-10-05T16:34:04.353Z,28.50
2022-10-05T16:36:47.879Z,27.80
2022-10-05T16:39:22.973Z,27.10
2022-10-05T16:41:58.424Z,26.50
2022-10-05T16:44:37.502Z,26.00
2022-10-05T16:47:27.744Z,25.60
2022-10-05T16:50:09.761Z,25.20
2022-10-05T16:52:41.004Z,24.80
2022-10-05T16:55:15.739Z,24.50
2022-10-05T16:57:51.464Z,24.30
2022-10-05T17:00:23.833Z,24.00
2022-10-05T17:03:35.310Z,23.70
2022-10-05T17:06:40.960Z,23.50
2022-10-05T17:09:24.108Z,23.30
2022-10-05T17:12:04.440Z,23.00
2022-10-05T17:14:44.022Z,22.90
2022-10-05T17:17:49.135Z,22.70
2022-10-05T17:20:40.204Z,22.50
2022-10-05T17:23:32.983Z,22.30
2022-10-05T17:26:33.885Z,22.20
2022-10-05T17:29:13.760Z,22.10
2022-10-05T17:32:01.725Z,21.90
2022-10-05T17:34:34.328Z,21.80
2022-10-05T17:37:19.524Z,21.70
2022-10-05T17:40:02.365Z,21.60
2022-10-05T17:43:01.360Z,21.50
2022-10-05T17:45:53.479Z,21.40
2022-10-05T17:49:02.396Z,21.30
2022-10-05T17:52:21.637Z,21.20
2022-10-05T17:55:20.710Z,21.20
2022-10-05T17:57:49.029Z,21.10
2022-10-05T18:00:49.848Z,21.00
2022-10-05T18:03:42.180Z,21.00
2022-10-05T18:06:33.495Z,20.90
2022-10-05T18:09:37.668Z,20.90
2022-10-05T18:12:44.107Z,20.80
2022-10-05T18:15:48.463Z,20.70
2022-10-05T18:18:38.742Z,20.60
2022-10-05T18:21:35.620Z,20.50
2022-10-05T18:24:29.295Z,20.40
2022-10-05T18:27:08.390Z,20.20
2022-10-05T18:30:08.779Z,20.10
2022-10-05T18:32:52.409Z,19.90
2022-10-05T18:35:26.221Z,19.80
2022-10-05T18:38:04.586Z,19.70
2022-10-05T18:40:43.022Z,19.60
2022-10-05T18:43:26.647Z,19.50
2022-10-05T18:46:22.054Z,19.40
2022-10-05T18:49:00.492Z,19.30
2022-10-05T18:51:38.033Z,19.20
2022-10-05T18:54:20.344Z,19.20
2022-10-05T18:56:51.700Z,19.10
2022-10-05T18:59:40.555Z,19.00
2022-10-05T19:02:23.427Z,18.90
2022-10-05T19:05:02.824Z,18.90
2022-10-05T19:07:41.706Z,18.80
2022-10-05T19:10:20.441Z,18.80
2022-10-05T19:13:10.143Z,18.70
2022-10-05T19:15:50.820Z,18.60
2022-10-05T19:19:01.010Z,18.50
2022-10-05T19:21:39.391Z,18.40
2022-10-05T19:24:34.300Z,18.20
2022-10-05T19:27:07.866Z,18.00
2022-10-05T19:29:48.238Z,17.90
2022-10-05T19:32:23.984Z,17.70
2022-10-05T19:35:07.256Z,17.60
2022-10-05T19:37:47.899Z,17.40
2022-10-05T19:40:24.363Z,17.30
2022-10-05T19:43:19.935Z,17.20
2022-10-05T19:46:00.392Z,17.00
2022-10-05T19:48:37.405Z,16.90
2022-10-05T19:51:13.769Z,16.80
2022-10-05T19:53:50.078Z,16.60
2022-10-05T19:56:21.468Z,16.50
2022-10-05T19:58:51.984Z,16.40
2022-10-05T20:01:25.989Z,16.30
2022-10-05T20:03:55.446Z,16.20
2022-10-05T20:06:23.721Z,16.20
2022-10-05T20:09:00.015Z,16.10
2022-10-05T20:11:29.570Z,16.00
2022-10-05T20:14:20.712Z,15.90
2022-10-05T20:17:06.608Z,15.80
2022-10-05T20:19:57.224Z,15.80
2022-10-05T20:22:31.608Z,15.70
2022-10-05T20:25:03.272Z,15.70
2022-10-05T20:27:47.635Z,15.60
2022-10-05T20:30:19.117Z,15.60
2022-10-05T20:32:51.668Z,15.50
2022-10-05T20:35:22.192Z,15.50
2022-10-05T20:37:51.000Z,15.50
2022-10-05T20:40:21.427Z,15.50
2022-10-05T20:42:50.324Z,15.50
2022-10-05T20:45:18.665Z,15.50
2022-10-05T20:47:47.606Z,15.50
2022-10-05T20:50:16.236Z,15.50
2022-10-05T20:52:44.472Z,15.60
2022-10-05T20:55:13.422Z,15.60
2022-10-05T20:57:43.192Z,15.70
2022-10-05T21:00:13.470Z,15.80
2022-10-05T21:02:42.093Z,15.90
2022-10-05T21:05:10.868Z,15.90
2022-10-05T21:07:40.905Z,15.90
2022-10-05T21:10:09.924Z,15.90
2022-10-05T21:12:38.418Z,15.90
2022-10-05T21:15:10.476Z,15.90
2022-10-05T21:17:40.126Z,15.90
2022-10-05T21:20:11.615Z,15.80
2022-10-05T21:22:39.928Z,15.80
2022-10-05T21:25:09.125Z,15.80
2022-10-05T21:27:37.385Z,15.80
2022-10-05T21:30:08.237Z,15.80
2022-10-05T21:32:40.586Z,15.80
2022-10-05T21:35:11.562Z,15.80
2022-10-05T21:37:39.968Z,15.80
2022-10-05T21:40:08.847Z,15.80
2022-10-05T21:42:37.501Z,15.70
2022-10-05T21:45:08.618Z,15.70
2022-10-05T21:47:37.119Z,15.70
2022-10-05T21:50:07.982Z,15.80
2022-10-05T21:52:37.065Z,15.80
2022-10-05T21:55:06.818Z,15.90
2022-10-05T21:57:36.108Z,16.00
2022-10-05T22:00:08.693Z,16.00
2022-10-05T22:02:37.827Z,16.00
2022-10-05T22:05:06.580Z,16.00
2022-10-05T22:07:35.150Z,16.00
2022-10-05T22:10:05.753Z,16.00
2022-10-05T22:12:34.790Z,16.00
2022-10-05T22:15:04.979Z,16.00
2022-10-05T22:17:35.512Z,16.00
2022-10-05T22:20:04.739Z,16.10
2022-10-05T22:22:33.225Z,16.10
2022-10-05T22:25:02.021Z,16.10
2022-10-05T22:27:31.753Z,16.20
2022-10-05T22:30:01.145Z,16.20
2022-10-05T22:32:29.534Z,16.20
2022-10-05T22:34:59.759Z,16.10
2022-10-05T22:37:28.187Z,16.10
2022-10-05T22:39:56.797Z,16.00
2022-10-05T22:42:25.275Z,15.90
2022-10-05T22:44:53.538Z,15.80
2022-10-05T22:47:22.126Z,15.80
2022-10-05T22:49:50.471Z,15.80
2022-10-05T22:52:20.290Z,15.70
2022-10-05T22:54:48.591Z,15.70
2022-10-05T22:57:17.471Z,15.60
2022-10-05T22:59:46.387Z,15.60
2022-10-05T23:02:15.296Z,15.60
2022-10-05T23:04:43.682Z,15.50
2022-10-05T23:07:11.996Z,15.50
2022-10-05T23:09:41.771Z,15.50
2022-10-05T23:12:10.243Z,15.50
2022-10-05T23:14:38.873Z,15.50
2022-10-05T23:17:07.935Z,15.40
2022-10-05T23:19:36.568Z,15.40
2022-10-05T23:22:05.020Z,15.40
2022-10-05T23:24:34.017Z,15.40
2022-10-05T23:27:03.809Z,15.30
2022-10-05T23:29:32.712Z,15.20
2022-10-05T23:32:01.229Z,15.10
2022-10-05T23:34:29.748Z,15.10
2022-10-05T23:36:58.391Z,15.00
2022-10-05T23:39:26.773Z,15.00
2022-10-05T23:41:55.616Z,15.00
2022-10-05T23:44:25.476Z,15.00
2022-10-05T23:46:53.799Z,15.00
2022-10-05T23:49:22.101Z,14.90
2022-10-05T23:51:50.414Z,15.00
2022-10-05T23:54:18.757Z,15.10
2022-10-05T23:56:47.022Z,15.10
2022-10-05T23:59:15.343Z,15.20
